Flight Track Log - Related Links

Times and Time Zones

All times are in EDT time to prevent confusion due to time zone crossing. See the SKW5333 flight status page for this flight to view local times or setup timezone preferences in your user account.

Time Position Orientation Groundspeed Altitude Reporting Facility
EDT Latitude Longitude Course Direction KTS MPH feet Rate Location/Type
Wed 01:56:30 AM 37.6536 -122.3733 North 140 161 1,600  Level Oakland Center
Wed 01:57:31 AM 37.7003 -122.3661 North 162 186 3,300 1,488 Climbing Oakland Center
Wed 01:58:31 AM 37.7442 -122.3747 351° North 173 199 4,600 1,388 Climbing Oakland Center
Wed 01:59:00 AM 37.8688 -122.3667 North  Level FlightAware Approximate
Wed 01:59:32 AM 37.7936 -122.3869 349° North 190 219 6,100  Level Oakland Center
Wed 02:00:00 AM 37.9477 -122.3689 38° Northeast  Level FlightAware Approximate
Wed 02:00:32 AM 37.8469 -122.3839 North 190 219 7,600  Level Oakland Center
Wed 02:01:00 AM 38.0317 -122.3667 North  Level FlightAware Approximate
Wed 02:01:33 AM 37.9017 -122.3697 12° North 197 227 9,100  Level Oakland Center
Wed 02:02:33 AM 37.9675 -122.3494 14° North 202 232 11,200 1,686 Climbing Oakland Center
Wed 02:03:34 AM 38.0219 -122.3350 12° North 201 231 12,500 1,190 Climbing Oakland Center
Wed 02:04:34 AM 38.0769 -122.3208 11° North 201 231 13,600 1,000 Climbing Oakland Center
Wed 02:05:34 AM 38.1333 -122.3047 13° North 205 236 14,500 893 Climbing Oakland Center
Wed 02:06:35 AM 38.1914 -122.2911 10° North 210 242 15,400 893 Climbing Oakland Center
Wed 02:07:35 AM 38.2489 -122.2744 13° North 211 243 16,300 843 Climbing Oakland Center
Wed 02:08:36 AM 38.3075 -122.2592 12° North 213 245 17,100 689 Climbing Oakland Center
Wed 02:09:37 AM 38.3667 -122.2436 12° North 214 246 17,700 694 Climbing Oakland Center
Wed 02:10:37 AM 38.4269 -122.2281 11° North 217 250 18,500 650 Climbing Oakland Center
Wed 02:11:37 AM 38.4864 -122.2122 12° North 218 251 19,000 248 Climbing Oakland Center
Wed 02:12:38 AM 38.5500 -122.1936 13° North 230 265 19,000  Level Oakland Center
Wed 02:13:38 AM 38.6139 -122.1783 11° North 231 266 19,000 50 Level Oakland Center
Wed 02:14:39 AM 38.6853 -122.1597 12° North 237 273 19,100 50 Climbing Oakland Center
Wed 02:15:39 AM 38.7514 -122.1431 11° North 239 275 19,100 -50 Level Oakland Center
Wed 02:16:40 AM 38.8183 -122.1253 12° North 243 280 19,000 -99 Descending Oakland Center
Wed 02:17:40 AM 38.8853 -122.1072 12° North 244 281 18,900 -446 Descending Oakland Center
Wed 02:18:41 AM 38.9553 -122.0858 13° North 253 291 18,100 -992 Descending Oakland Center
Wed 02:19:41 AM 39.0236 -122.0644 14° North 255 293 16,900 -1,537 Descending Oakland Center
Wed 02:20:42 AM 39.0928 -122.0458 12° North 254 292 15,000 -1,983 Descending Oakland Center
Wed 02:21:42 AM 39.1633 -122.0297 10° North 255 293 12,900 -2,150 Descending Oakland Center
Wed 02:22:42 AM 39.2342 -122.0106 12° North 256 295 10,700 -1,934 Descending Oakland Center
Wed 02:23:43 AM 39.3028 -121.9914 12° North 254 292 9,000 -1,587 Descending Oakland Center
Wed 02:24:43 AM 39.3644 -121.9708 14° North 233 268 7,500 -1,438 Descending Oakland Center
Wed 02:25:44 AM 39.4214 -121.9542 13° North 214 246 6,100 -1,388 Descending Oakland Center
Wed 02:26:44 AM 39.4783 -121.9358 14° North 213 245 4,700 -1,190 Descending Oakland Center
Wed 02:27:45 AM 39.5386 -121.8958 27° Northeast 226 260 3,700 -793 Descending Oakland Center
Wed 02:28:45 AM 39.5917 -121.8600 27° Northeast 224 258 3,100 -600 Descending Oakland Center

Login

Don't have an account? Register now (free) for customized features, flight alerts, and more!